createdAt,value
2018-10-17T00:02:24.387Z,14.00
2018-10-17T00:04:52.755Z,13.90
2018-10-17T00:07:21.027Z,13.90
2018-10-17T00:09:49.338Z,13.90
2018-10-17T00:12:17.642Z,13.80
2018-10-17T00:14:45.971Z,13.80
2018-10-17T00:17:14.345Z,13.80
2018-10-17T00:19:42.627Z,13.70
2018-10-17T00:22:10.920Z,13.70
2018-10-17T00:24:39.240Z,13.70
2018-10-17T00:27:07.539Z,13.60
2018-10-17T00:29:35.854Z,13.60
2018-10-17T00:32:04.186Z,13.60
2018-10-17T00:34:32.491Z,13.60
2018-10-17T00:37:00.842Z,13.60
2018-10-17T00:39:29.129Z,13.60
2018-10-17T00:41:57.443Z,13.60
2018-10-17T00:44:25.755Z,13.60
2018-10-17T00:46:54.129Z,13.60
2018-10-17T00:49:22.388Z,13.60
2018-10-17T00:51:50.722Z,13.60
2018-10-17T00:54:19.015Z,13.50
2018-10-17T00:56:47.331Z,13.50
2018-10-17T00:59:16.787Z,13.50
2018-10-17T01:01:45.098Z,13.50
2018-10-17T01:04:13.406Z,13.50
2018-10-17T01:06:41.735Z,13.50
2018-10-17T01:09:11.637Z,13.50
2018-10-17T01:11:40.340Z,13.50
2018-10-17T01:14:09.207Z,13.50
2018-10-17T01:16:37.526Z,13.50
2018-10-17T01:19:06.332Z,13.40
2018-10-17T01:21:35.387Z,13.40
2018-10-17T01:24:03.714Z,13.40
2018-10-17T01:26:32.143Z,13.40
2018-10-17T01:29:00.452Z,13.30
2018-10-17T01:31:28.819Z,13.30
2018-10-17T01:33:57.129Z,13.30
2018-10-17T01:36:25.447Z,13.20
2018-10-17T01:38:53.747Z,13.20
2018-10-17T01:41:22.060Z,13.20
2018-10-17T01:43:50.358Z,13.20
2018-10-17T01:46:18.704Z,13.10
2018-10-17T01:48:46.995Z,13.10
2018-10-17T01:51:15.324Z,13.10
2018-10-17T01:53:43.630Z,13.00
2018-10-17T01:56:11.943Z,13.00
2018-10-17T01:58:40.249Z,12.90
2018-10-17T02:01:08.604Z,12.90
2018-10-17T02:03:36.907Z,12.90
2018-10-17T02:06:06.399Z,12.80
2018-10-17T02:08:34.711Z,12.80
2018-10-17T02:11:03.069Z,12.80
2018-10-17T02:13:31.347Z,12.80
2018-10-17T02:15:59.663Z,12.70
2018-10-17T02:18:27.963Z,12.80
2018-10-17T02:20:56.299Z,12.70
2018-10-17T02:23:24.593Z,12.70
2018-10-17T02:25:52.916Z,12.70
2018-10-17T02:28:21.231Z,12.70
2018-10-17T02:30:49.551Z,12.70
2018-10-17T02:33:17.855Z,12.70
2018-10-17T02:35:46.188Z,12.70
2018-10-17T02:38:14.507Z,12.60
2018-10-17T02:40:42.832Z,12.60
2018-10-17T02:43:11.222Z,12.60
2018-10-17T02:45:39.503Z,12.50
2018-10-17T02:48:07.831Z,12.50
2018-10-17T02:50:36.133Z,12.50
2018-10-17T02:53:04.737Z,12.40
2018-10-17T02:55:33.024Z,12.40
2018-10-17T02:58:01.418Z,12.50
2018-10-17T03:00:29.741Z,12.40
2018-10-17T03:02:58.062Z,12.40
2018-10-17T03:05:26.371Z,12.40
2018-10-17T03:07:54.695Z,12.40
2018-10-17T03:10:23.000Z,12.40
2018-10-17T03:12:51.426Z,12.30
2018-10-17T03:15:19.720Z,12.30
2018-10-17T03:17:48.033Z,12.30
2018-10-17T03:20:16.335Z,12.30
2018-10-17T03:22:44.700Z,12.20
2018-10-17T03:25:13.047Z,12.20
2018-10-17T03:27:41.346Z,12.20
2018-10-17T03:30:09.674Z,12.20
2018-10-17T03:32:37.997Z,12.10
2018-10-17T03:35:07.275Z,12.10
2018-10-17T03:37:35.835Z,12.10
2018-10-17T03:40:04.477Z,12.10
2018-10-17T03:42:33.816Z,12.10
2018-10-17T03:45:02.134Z,12.10
2018-10-17T03:47:30.463Z,12.10
2018-10-17T03:49:58.819Z,12.10
2018-10-17T03:52:27.126Z,12.10
2018-10-17T03:54:55.481Z,12.10
2018-10-17T03:57:23.779Z,12.10
2018-10-17T03:59:52.080Z,12.10
2018-10-17T04:02:20.402Z,12.10
2018-10-17T04:04:48.702Z,12.10
2018-10-17T04:07:17.132Z,12.00
2018-10-17T04:09:45.345Z,12.00
2018-10-17T04:12:13.669Z,12.00
2018-10-17T04:14:41.970Z,12.00
2018-10-17T04:17:10.309Z,12.00
2018-10-17T04:19:38.601Z,12.00
2018-10-17T04:22:06.946Z,12.00
2018-10-17T04:24:35.248Z,11.90
2018-10-17T04:27:03.576Z,11.90
2018-10-17T04:29:31.863Z,11.90
2018-10-17T04:32:00.176Z,11.80
2018-10-17T04:34:28.480Z,11.80
2018-10-17T04:36:56.818Z,11.80
2018-10-17T04:39:25.150Z,11.80
2018-10-17T04:41:53.480Z,11.70
2018-10-17T04:44:21.813Z,11.70
2018-10-17T04:46:50.152Z,11.70
2018-10-17T04:49:18.534Z,11.60
2018-10-17T04:51:46.800Z,11.60
2018-10-17T04:54:15.100Z,11.60
2018-10-17T04:56:43.428Z,11.60
2018-10-17T04:59:11.806Z,11.50
2018-10-17T05:01:40.083Z,11.50
2018-10-17T05:04:08.406Z,11.50
2018-10-17T05:06:36.751Z,11.50
2018-10-17T05:09:08.588Z,11.50
2018-10-17T05:11:36.899Z,11.50
2018-10-17T05:14:05.964Z,11.40
2018-10-17T05:16:34.268Z,11.40
2018-10-17T05:19:02.636Z,11.40
2018-10-17T05:21:30.920Z,11.30
2018-10-17T05:23:59.227Z,11.30
2018-10-17T05:26:27.539Z,11.30
2018-10-17T05:28:55.925Z,11.30
2018-10-17T05:31:24.188Z,11.20
2018-10-17T05:33:52.516Z,11.20
2018-10-17T05:36:20.812Z,11.20
2018-10-17T05:38:49.131Z,11.10
2018-10-17T05:41:17.429Z,11.10
2018-10-17T05:43:45.744Z,11.10
2018-10-17T05:46:14.065Z,11.00
2018-10-17T05:48:42.380Z,11.00
2018-10-17T05:51:10.681Z,11.00
2018-10-17T05:53:39.009Z,11.00
2018-10-17T05:56:07.312Z,11.00
2018-10-17T05:58:35.633Z,11.00
2018-10-17T06:01:03.961Z,11.00
2018-10-17T06:03:32.276Z,11.00
2018-10-17T06:06:00.586Z,11.00
2018-10-17T06:08:28.919Z,10.90
2018-10-17T06:10:57.226Z,10.90
2018-10-17T06:13:25.564Z,10.90
2018-10-17T06:15:53.868Z,10.90
2018-10-17T06:18:22.661Z,10.90
2018-10-17T06:20:50.981Z,10.90
2018-10-17T06:23:19.299Z,11.00
2018-10-17T06:25:47.603Z,10.90
2018-10-17T06:28:15.933Z,10.90
2018-10-17T06:30:44.320Z,10.90
2018-10-17T06:33:12.591Z,10.90
2018-10-17T06:35:40.892Z,10.90
2018-10-17T06:38:09.211Z,10.90
2018-10-17T06:40:37.516Z,10.90
2018-10-17T06:43:05.928Z,10.90
2018-10-17T06:45:34.229Z,11.00
2018-10-17T06:48:02.552Z,11.00
2018-10-17T06:50:30.846Z,11.00
2018-10-17T06:52:59.213Z,11.00
2018-10-17T06:55:27.484Z,11.00
2018-10-17T06:57:55.824Z,11.10
2018-10-17T07:00:24.152Z,11.10
2018-10-17T07:02:52.471Z,11.20
2018-10-17T07:05:20.777Z,11.20
2018-10-17T07:07:49.095Z,11.20
2018-10-17T07:10:17.397Z,11.30
2018-10-17T07:12:45.727Z,11.30
2018-10-17T07:15:14.131Z,11.30
2018-10-17T07:17:42.364Z,11.40
2018-10-17T07:20:10.699Z,11.40
2018-10-17T07:22:39.020Z,11.50
2018-10-17T07:25:07.360Z,11.50
2018-10-17T07:27:35.961Z,11.60
2018-10-17T07:30:05.364Z,11.60
2018-10-17T07:32:33.691Z,11.70
2018-10-17T07:35:02.024Z,11.70
2018-10-17T07:37:30.325Z,11.80
2018-10-17T07:39:58.639Z,11.80
2018-10-17T07:42:26.947Z,11.90
2018-10-17T07:44:55.284Z,12.00
2018-10-17T07:47:23.594Z,12.00
2018-10-17T07:49:51.920Z,12.10
2018-10-17T07:52:20.221Z,12.20
2018-10-17T07:54:48.547Z,12.30
2018-10-17T07:57:16.860Z,12.40
2018-10-17T07:59:45.227Z,12.40
2018-10-17T08:02:13.517Z,12.50
2018-10-17T08:04:41.840Z,12.50
2018-10-17T08:07:10.167Z,12.70
2018-10-17T08:09:38.487Z,12.70
2018-10-17T08:12:06.804Z,12.80
2018-10-17T08:14:35.129Z,12.80
2018-10-17T08:17:03.436Z,12.90
2018-10-17T08:19:31.765Z,13.00
2018-10-17T08:22:00.106Z,13.10
2018-10-17T08:24:28.437Z,13.20
2018-10-17T08:26:56.793Z,13.30
2018-10-17T08:29:25.132Z,13.40
2018-10-17T08:31:53.444Z,13.40
2018-10-17T08:34:21.775Z,13.60
2018-10-17T08:36:51.072Z,13.60
2018-10-17T08:39:19.254Z,13.70
2018-10-17T08:41:47.568Z,13.80
2018-10-17T08:44:16.005Z,13.90
2018-10-17T08:46:44.277Z,14.00
2018-10-17T08:49:12.612Z,14.10
2018-10-17T08:51:40.976Z,14.10
2018-10-17T08:54:09.307Z,14.20
2018-10-17T08:56:37.628Z,14.30
2018-10-17T08:59:05.963Z,14.40
2018-10-17T09:01:34.299Z,14.50
2018-10-17T09:04:02.674Z,14.60
2018-10-17T09:06:30.983Z,14.70
2018-10-17T09:08:59.331Z,14.90
2018-10-17T09:11:27.644Z,15.00
2018-10-17T09:13:56.001Z,15.10
2018-10-17T09:16:24.372Z,15.10
2018-10-17T09:18:52.715Z,15.20
2018-10-17T09:21:21.191Z,15.30
2018-10-17T09:23:49.379Z,15.50
2018-10-17T09:26:17.691Z,15.60
2018-10-17T09:28:45.999Z,15.70
2018-10-17T09:31:14.320Z,15.80
2018-10-17T09:33:42.635Z,15.90
2018-10-17T09:36:11.023Z,16.00
2018-10-17T09:38:39.307Z,16.10
2018-10-17T09:41:07.643Z,16.20
2018-10-17T09:43:35.958Z,16.30
2018-10-17T09:46:04.698Z,16.40
2018-10-17T09:48:33.018Z,16.50
2018-10-17T09:51:01.352Z,16.60
2018-10-17T09:53:29.720Z,16.80
2018-10-17T09:55:58.003Z,16.90
2018-10-17T09:58:26.371Z,17.00
2018-10-17T10:01:00.117Z,17.10
2018-10-17T10:03:28.460Z,17.20
2018-10-17T10:05:56.945Z,17.30
2018-10-17T10:08:25.275Z,17.40
2018-10-17T10:10:53.613Z,17.50
2018-10-17T10:13:21.920Z,17.60
2018-10-17T10:15:50.246Z,17.70
2018-10-17T10:18:18.568Z,17.80
2018-10-17T10:20:46.895Z,17.90
2018-10-17T10:23:15.310Z,18.00
2018-10-17T10:25:43.613Z,18.10
2018-10-17T10:28:12.014Z,18.10
2018-10-17T10:33:15.050Z,18.30
2018-10-17T10:35:43.392Z,18.30
2018-10-17T10:38:11.715Z,18.40
2018-10-17T10:40:40.167Z,18.50
2018-10-17T10:43:08.408Z,18.50
2018-10-17T10:45:36.889Z,18.60
2018-10-17T10:48:05.309Z,18.70
2018-10-17T10:50:33.648Z,18.80
2018-10-17T10:53:02.081Z,18.90
2018-10-17T10:55:30.316Z,19.00
2018-10-17T10:57:58.671Z,19.00
2018-10-17T11:00:26.986Z,19.10
2018-10-17T11:02:55.369Z,19.20
2018-10-17T11:05:23.818Z,19.30
2018-10-17T11:07:52.042Z,19.50
2018-10-17T11:10:20.408Z,19.60
2018-10-17T11:12:48.728Z,19.70
2018-10-17T11:15:17.056Z,19.70
2018-10-17T11:17:45.368Z,19.90
2018-10-17T11:20:13.710Z,20.00
2018-10-17T11:22:42.011Z,20.10
2018-10-17T11:25:10.437Z,20.20
2018-10-17T11:27:38.747Z,20.30
2018-10-17T11:30:08.727Z,20.40
2018-10-17T11:32:37.127Z,20.50
2018-10-17T11:35:06.482Z,20.60
2018-10-17T11:37:34.835Z,20.70
2018-10-17T11:40:03.251Z,20.90
2018-10-17T11:42:31.612Z,20.90
2018-10-17T11:44:59.962Z,21.00
2018-10-17T11:47:28.323Z,21.20
2018-10-17T11:49:56.647Z,21.20
2018-10-17T11:52:24.956Z,21.30
2018-10-17T11:54:53.267Z,21.40
2018-10-17T11:57:21.736Z,21.50
2018-10-17T11:59:50.159Z,21.60
2018-10-17T12:02:18.433Z,21.70
2018-10-17T12:04:47.332Z,21.90
2018-10-17T12:07:15.351Z,22.00
2018-10-17T12:09:43.656Z,22.10
2018-10-17T12:12:12.001Z,22.20
2018-10-17T12:14:40.307Z,22.30
2018-10-17T12:17:08.657Z,22.40
2018-10-17T12:19:36.961Z,22.50
2018-10-17T12:22:05.339Z,22.60
2018-10-17T12:24:33.637Z,22.80
2018-10-17T12:27:02.063Z,22.90
2018-10-17T12:29:30.341Z,23.00
2018-10-17T12:31:58.681Z,23.20
2018-10-17T12:34:26.994Z,23.30
2018-10-17T12:36:55.349Z,23.40
2018-10-17T12:39:23.783Z,23.50
2018-10-17T12:41:51.992Z,23.60
2018-10-17T12:44:21.526Z,23.60
2018-10-17T12:46:49.811Z,23.70
2018-10-17T12:49:18.113Z,23.70
2018-10-17T12:51:46.463Z,23.80
2018-10-17T12:54:14.772Z,23.80
2018-10-17T12:56:43.095Z,23.80
2018-10-17T12:59:11.461Z,23.70
2018-10-17T13:01:39.748Z,23.70
2018-10-17T13:04:08.060Z,23.70
2018-10-17T13:06:36.421Z,23.70
2018-10-17T13:09:08.105Z,23.70
2018-10-17T13:11:36.561Z,23.70
2018-10-17T13:14:04.795Z,23.80
2018-10-17T13:16:33.132Z,23.80
2018-10-17T13:19:01.628Z,23.90
2018-10-17T13:21:29.958Z,23.90
2018-10-17T13:23:58.489Z,23.90
2018-10-17T13:26:26.819Z,23.90
2018-10-17T13:28:55.226Z,24.00
2018-10-17T13:31:23.537Z,24.00
2018-10-17T13:33:51.843Z,24.00
2018-10-17T13:36:20.167Z,24.10
2018-10-17T13:38:48.451Z,24.10
2018-10-17T13:41:16.847Z,24.10
2018-10-17T13:43:45.095Z,24.20
2018-10-17T13:46:13.428Z,24.10
2018-10-17T13:48:41.733Z,24.10
2018-10-17T13:51:10.060Z,24.10
2018-10-17T13:53:38.351Z,24.10
2018-10-17T13:56:06.744Z,24.10
2018-10-17T13:58:35.036Z,24.10
2018-10-17T14:01:03.423Z,24.10
2018-10-17T14:03:31.680Z,24.10
2018-10-17T14:06:00.068Z,24.00
2018-10-17T14:08:28.327Z,24.00
2018-10-17T14:10:56.624Z,24.00
2018-10-17T14:13:25.450Z,24.00
2018-10-17T14:15:53.692Z,24.00
2018-10-17T14:18:22.011Z,24.00
2018-10-17T14:20:50.320Z,23.90
2018-10-17T14:23:18.688Z,23.90
2018-10-17T14:25:46.965Z,23.90
2018-10-17T14:28:15.298Z,23.90
2018-10-17T14:30:43.604Z,23.80
2018-10-17T14:33:11.935Z,23.80
2018-10-17T14:35:40.259Z,23.80
2018-10-17T14:38:08.579Z,23.70
2018-10-17T14:43:11.628Z,23.60
2018-10-17T14:45:39.955Z,23.60
2018-10-17T14:48:08.420Z,23.50
2018-10-17T14:50:36.966Z,23.50
2018-10-17T14:53:05.734Z,23.40
2018-10-17T14:55:34.093Z,23.30
2018-10-17T14:58:02.464Z,23.20
2018-10-17T15:00:30.790Z,23.20
2018-10-17T15:02:59.108Z,23.10
2018-10-17T15:05:27.416Z,23.00
2018-10-17T15:07:55.737Z,23.00
2018-10-17T15:10:24.116Z,22.90
2018-10-17T15:12:52.420Z,22.80
2018-10-17T15:15:20.826Z,22.70
2018-10-17T15:17:49.061Z,22.60
2018-10-17T15:20:17.376Z,22.50
2018-10-17T15:22:46.072Z,22.50
2018-10-17T15:25:14.380Z,22.40
2018-10-17T15:27:42.704Z,22.30
2018-10-17T15:30:11.039Z,22.20
2018-10-17T15:32:39.360Z,22.10
2018-10-17T15:35:08.109Z,22.10
2018-10-17T15:37:36.425Z,21.90
2018-10-17T15:40:05.159Z,21.90
2018-10-17T15:42:33.493Z,21.80
2018-10-17T15:45:01.857Z,21.60
2018-10-17T15:47:30.159Z,21.60
2018-10-17T15:49:58.446Z,21.40
2018-10-17T15:52:26.758Z,21.30
2018-10-17T15:54:55.050Z,21.20
2018-10-17T15:57:23.370Z,21.10
2018-10-17T15:59:51.697Z,21.00
2018-10-17T16:02:20.193Z,20.90
2018-10-17T16:04:48.343Z,20.80
2018-10-17T16:07:16.655Z,20.60
2018-10-17T16:09:44.948Z,20.50
2018-10-17T16:12:13.296Z,20.40
2018-10-17T16:14:41.672Z,20.30
2018-10-17T16:17:10.087Z,20.20
2018-10-17T16:19:39.159Z,20.10
2018-10-17T16:22:07.620Z,20.00
2018-10-17T16:24:36.192Z,19.90
2018-10-17T16:27:04.771Z,19.80
2018-10-17T16:29:33.106Z,19.70
2018-10-17T16:32:01.524Z,19.60
2018-10-17T16:34:29.876Z,19.50
2018-10-17T16:36:58.176Z,19.40
2018-10-17T16:39:26.482Z,19.30
2018-10-17T16:41:54.830Z,19.20
2018-10-17T16:44:23.243Z,19.10
2018-10-17T16:46:51.543Z,19.00
2018-10-17T16:49:19.851Z,18.90
2018-10-17T16:51:48.201Z,18.80
2018-10-17T16:54:16.669Z,18.70
2018-10-17T16:56:44.831Z,18.60
2018-10-17T16:59:13.153Z,18.50
2018-10-17T17:01:41.451Z,18.40
2018-10-17T17:04:09.808Z,18.30
2018-10-17T17:06:38.090Z,18.20
2018-10-17T17:09:08.317Z,18.10
2018-10-17T17:11:36.579Z,18.10
2018-10-17T17:14:07.196Z,18.00
2018-10-17T17:16:35.880Z,17.90
2018-10-17T17:19:06.645Z,17.80
2018-10-17T17:21:34.939Z,17.70
2018-10-17T17:24:03.444Z,17.70
2018-10-17T17:26:31.745Z,17.60
2018-10-17T17:29:00.057Z,17.50
2018-10-17T17:31:28.355Z,17.50
2018-10-17T17:33:56.681Z,17.40
2018-10-17T17:36:25.025Z,17.30
2018-10-17T17:38:53.320Z,17.30
2018-10-17T17:41:21.637Z,17.20
2018-10-17T17:43:49.964Z,17.10
2018-10-17T17:46:18.296Z,17.00
2018-10-17T17:48:46.615Z,17.00
2018-10-17T17:51:14.933Z,16.90
2018-10-17T17:53:43.251Z,16.80
2018-10-17T17:56:11.552Z,16.80
2018-10-17T17:58:40.013Z,16.80
2018-10-17T18:01:08.253Z,16.70
2018-10-17T18:03:36.577Z,16.70
2018-10-17T18:06:04.880Z,16.60
2018-10-17T18:08:33.184Z,16.60
2018-10-17T18:11:15.943Z,16.50
2018-10-17T18:13:44.436Z,16.40
2018-10-17T18:16:12.817Z,16.40
2018-10-17T18:18:41.400Z,16.30
2018-10-17T18:21:09.708Z,16.30
2018-10-17T18:23:38.031Z,16.20
2018-10-17T18:26:06.372Z,16.20
2018-10-17T18:28:34.830Z,16.10
2018-10-17T18:31:03.064Z,16.10
2018-10-17T18:33:31.379Z,16.10
2018-10-17T18:35:59.743Z,16.00
2018-10-17T18:38:28.154Z,16.00
2018-10-17T18:40:56.488Z,15.90
2018-10-17T18:43:24.969Z,15.90
2018-10-17T18:45:53.318Z,15.90
2018-10-17T18:48:22.455Z,15.80
2018-10-17T18:50:50.868Z,15.80
2018-10-17T18:53:19.202Z,15.70
2018-10-17T18:55:47.707Z,15.70
2018-10-17T18:58:16.025Z,15.60
2018-10-17T19:00:44.344Z,15.60
2018-10-17T19:03:12.728Z,15.50
2018-10-17T19:05:41.007Z,15.40
2018-10-17T19:08:09.461Z,15.30
2018-10-17T19:10:37.711Z,15.30
2018-10-17T19:13:06.221Z,15.20
2018-10-17T19:15:34.743Z,15.20
2018-10-17T19:18:03.045Z,15.10
2018-10-17T19:20:31.367Z,15.10
2018-10-17T19:22:59.668Z,15.10
2018-10-17T19:25:27.984Z,15.00
2018-10-17T19:27:56.288Z,14.90
2018-10-17T19:30:24.608Z,14.90
2018-10-17T19:32:53.074Z,14.90
2018-10-17T19:35:21.412Z,14.80
2018-10-17T19:37:49.718Z,14.80
2018-10-17T19:40:18.060Z,14.80
2018-10-17T19:42:46.379Z,14.70
2018-10-17T19:45:14.755Z,14.70
2018-10-17T19:47:43.039Z,14.60
2018-10-17T19:50:11.380Z,14.60
2018-10-17T19:52:39.680Z,14.60
2018-10-17T19:55:08.688Z,14.50
2018-10-17T19:57:43.768Z,14.50
2018-10-17T20:00:13.631Z,14.50
2018-10-17T20:02:42.607Z,14.40
2018-10-17T20:05:11.212Z,14.40
2018-10-17T20:07:40.037Z,14.40
2018-10-17T20:10:08.449Z,14.40
2018-10-17T20:12:36.952Z,14.30
2018-10-17T20:15:06.032Z,14.30
2018-10-17T20:17:34.309Z,14.30
2018-10-17T20:20:02.644Z,14.30
2018-10-17T20:22:30.935Z,14.20
2018-10-17T20:24:59.315Z,14.20
2018-10-17T20:27:27.593Z,14.10
2018-10-17T20:29:55.911Z,14.10
2018-10-17T20:32:24.199Z,14.00
2018-10-17T20:34:52.574Z,14.00
2018-10-17T20:37:20.851Z,13.90
2018-10-17T20:39:49.164Z,13.90
2018-10-17T20:42:17.499Z,13.90
2018-10-17T20:44:45.812Z,13.80
2018-10-17T20:47:14.103Z,13.80
2018-10-17T20:49:42.487Z,13.80
2018-10-17T20:52:10.843Z,13.70
2018-10-17T20:54:39.119Z,13.70
2018-10-17T20:57:07.418Z,13.70
2018-10-17T20:59:35.728Z,13.60
2018-10-17T21:02:04.328Z,13.60
2018-10-17T21:04:32.647Z,13.60
2018-10-17T21:07:00.936Z,13.50
2018-10-17T21:09:29.257Z,13.50
2018-10-17T21:11:57.543Z,13.50
2018-10-17T21:14:25.855Z,13.50
2018-10-17T21:16:54.148Z,13.40
2018-10-17T21:19:22.477Z,13.40
2018-10-17T21:21:50.766Z,13.30
2018-10-17T21:24:19.054Z,13.30
2018-10-17T21:26:47.439Z,13.30
2018-10-17T21:29:15.675Z,13.20
2018-10-17T21:31:43.998Z,13.10
2018-10-17T21:34:12.292Z,13.10
2018-10-17T21:36:40.603Z,13.10
2018-10-17T21:39:10.521Z,13.00
2018-10-17T21:41:38.834Z,13.00
2018-10-17T21:44:11.098Z,13.00
2018-10-17T21:46:39.859Z,13.00
2018-10-17T21:49:09.149Z,12.90
2018-10-17T21:51:37.559Z,12.90
2018-10-17T21:54:06.011Z,12.90
2018-10-17T21:56:34.383Z,12.90
2018-10-17T21:59:02.870Z,12.80
2018-10-17T22:01:31.192Z,12.80
2018-10-17T22:03:59.498Z,12.80
2018-10-17T22:06:27.821Z,12.70
2018-10-17T22:08:56.115Z,12.70
2018-10-17T22:11:24.432Z,12.70
2018-10-17T22:13:52.756Z,12.60
2018-10-17T22:16:21.063Z,12.60
2018-10-17T22:18:49.443Z,12.60
2018-10-17T22:21:17.693Z,12.60
2018-10-17T22:23:45.990Z,12.50
2018-10-17T22:26:14.348Z,12.50
2018-10-17T22:28:42.620Z,12.50
2018-10-17T22:31:10.935Z,12.50
2018-10-17T22:33:39.228Z,12.50
2018-10-17T22:36:07.545Z,12.50
2018-10-17T22:38:35.839Z,12.40
2018-10-17T22:41:04.194Z,12.40
2018-10-17T22:43:32.476Z,12.40
2018-10-17T22:46:00.804Z,12.40
2018-10-17T22:48:29.095Z,12.30
2018-10-17T22:50:57.408Z,12.30
2018-10-17T22:53:25.710Z,12.30
2018-10-17T22:55:54.066Z,12.30
2018-10-17T22:58:22.351Z,12.20
2018-10-17T23:00:50.663Z,12.20
2018-10-17T23:03:18.955Z,12.20
2018-10-17T23:05:47.280Z,12.20
2018-10-17T23:08:15.669Z,12.10
2018-10-17T23:10:43.919Z,12.10
2018-10-17T23:13:12.235Z,12.10
2018-10-17T23:15:40.607Z,12.10
2018-10-17T23:18:08.899Z,12.00
2018-10-17T23:20:37.222Z,12.00
2018-10-17T23:23:05.515Z,12.00
2018-10-17T23:25:33.825Z,12.00
2018-10-17T23:28:02.141Z,11.90
2018-10-17T23:30:30.453Z,11.90
2018-10-17T23:32:58.744Z,11.90
2018-10-17T23:35:27.077Z,11.90
2018-10-17T23:37:55.387Z,11.90
2018-10-17T23:40:23.683Z,11.90
2018-10-17T23:42:51.991Z,11.90
2018-10-17T23:45:20.304Z,11.80
2018-10-17T23:47:48.620Z,11.80
2018-10-17T23:50:16.979Z,11.80
2018-10-17T23:52:45.244Z,11.80
2018-10-17T23:55:13.552Z,11.70
2018-10-17T23:57:41.872Z,11.70
